sensor_id;sensor_type;location;lat;lon;timestamp;pressure;altitude;pressure_sealevel;temperature;humidity
10464;BME280;5279;42.048;24.638;2022-07-22T00:02:12;97459.50;;;21.53;73.67
10464;BME280;5279;42.048;24.638;2022-07-22T00:04:39;97445.00;;;21.54;74.36
10464;BME280;5279;42.048;24.638;2022-07-22T00:07:06;97466.16;;;21.51;75.13
10464;BME280;5279;42.048;24.638;2022-07-22T00:09:33;97451.31;;;21.35;76.46
10464;BME280;5279;42.048;24.638;2022-07-22T00:12:01;97464.94;;;21.47;76.08
10464;BME280;5279;42.048;24.638;2022-07-22T00:14:31;97466.63;;;21.41;76.32
10464;BME280;5279;42.048;24.638;2022-07-22T00:16:58;97473.69;;;21.42;76.33
10464;BME280;5279;42.048;24.638;2022-07-22T00:19:25;97475.94;;;21.45;78.02
10464;BME280;5279;42.048;24.638;2022-07-22T00:21:53;97472.03;;;21.41;77.03
10464;BME280;5279;42.048;24.638;2022-07-22T00:24:20;97480.81;;;21.30;78.73
10464;BME280;5279;42.048;24.638;2022-07-22T00:26:47;97474.00;;;21.21;78.26
10464;BME280;5279;42.048;24.638;2022-07-22T00:29:15;97474.44;;;21.18;79.31
10464;BME280;5279;42.048;24.638;2022-07-22T00:31:42;97474.66;;;21.10;80.76
10464;BME280;5279;42.048;24.638;2022-07-22T00:34:10;97476.59;;;20.90;83.36
10464;BME280;5279;42.048;24.638;2022-07-22T00:36:37;97478.31;;;20.64;84.35
10464;BME280;5279;42.048;24.638;2022-07-22T00:39:04;97468.59;;;20.57;85.68
10464;BME280;5279;42.048;24.638;2022-07-22T00:41:32;97472.31;;;20.62;83.94
10464;BME280;5279;42.048;24.638;2022-07-22T00:44:00;97485.16;;;20.60;84.64
10464;BME280;5279;42.048;24.638;2022-07-22T00:46:31;97471.31;;;20.50;87.03
10464;BME280;5279;42.048;24.638;2022-07-22T00:48:58;97463.00;;;20.52;87.51
10464;BME280;5279;42.048;24.638;2022-07-22T00:51:27;97472.97;;;20.51;89.73
10464;BME280;5279;42.048;24.638;2022-07-22T00:53:55;97472.50;;;20.67;86.98
10464;BME280;5279;42.048;24.638;2022-07-22T00:56:25;97466.94;;;20.62;85.96
10464;BME280;5279;42.048;24.638;2022-07-22T00:58:54;97477.09;;;20.54;87.91
10464;BME280;5279;42.048;24.638;2022-07-22T01:01:21;97478.78;;;20.48;88.72
10464;BME280;5279;42.048;24.638;2022-07-22T01:03:50;97476.50;;;20.45;89.03
10464;BME280;5279;42.048;24.638;2022-07-22T01:06:17;97473.59;;;20.40;89.98
10464;BME280;5279;42.048;24.638;2022-07-22T01:08:44;97482.31;;;20.42;91.47
10464;BME280;5279;42.048;24.638;2022-07-22T01:11:13;97471.53;;;20.42;90.90
10464;BME280;5279;42.048;24.638;2022-07-22T01:13:41;97483.31;;;20.54;89.99
10464;BME280;5279;42.048;24.638;2022-07-22T01:16:13;97485.19;;;20.47;91.63
10464;BME280;5279;42.048;24.638;2022-07-22T01:18:41;97479.38;;;20.50;92.16
10464;BME280;5279;42.048;24.638;2022-07-22T01:21:10;97473.59;;;20.40;92.75
10464;BME280;5279;42.048;24.638;2022-07-22T01:23:42;97480.41;;;20.49;92.07
10464;BME280;5279;42.048;24.638;2022-07-22T01:26:09;97477.31;;;20.46;90.40
10464;BME280;5279;42.048;24.638;2022-07-22T01:28:37;97483.31;;;20.48;91.09
10464;BME280;5279;42.048;24.638;2022-07-22T01:31:04;97487.03;;;20.40;91.41
10464;BME280;5279;42.048;24.638;2022-07-22T01:33:32;97478.19;;;20.33;90.90
10464;BME280;5279;42.048;24.638;2022-07-22T01:35:59;97483.56;;;20.33;90.49
10464;BME280;5279;42.048;24.638;2022-07-22T01:38:28;97473.19;;;20.17;90.39
10464;BME280;5279;42.048;24.638;2022-07-22T01:40:55;97481.44;;;20.22;88.64
10464;BME280;5279;42.048;24.638;2022-07-22T01:43:22;97490.56;;;20.21;90.12
10464;BME280;5279;42.048;24.638;2022-07-22T01:45:51;97482.91;;;20.18;90.15
10464;BME280;5279;42.048;24.638;2022-07-22T01:48:20;97477.34;;;20.26;91.43
10464;BME280;5279;42.048;24.638;2022-07-22T01:50:49;97468.22;;;20.21;90.98
10464;BME280;5279;42.048;24.638;2022-07-22T01:53:16;97469.06;;;20.21;91.64
10464;BME280;5279;42.048;24.638;2022-07-22T01:55:45;97471.31;;;20.11;93.27
10464;BME280;5279;42.048;24.638;2022-07-22T01:58:12;97471.09;;;20.12;94.37
10464;BME280;5279;42.048;24.638;2022-07-22T02:00:39;97468.63;;;20.24;93.09
10464;BME280;5279;42.048;24.638;2022-07-22T02:03:07;97466.56;;;20.13;94.60
10464;BME280;5279;42.048;24.638;2022-07-22T02:05:36;97454.13;;;20.18;91.89
10464;BME280;5279;42.048;24.638;2022-07-22T02:08:05;97461.16;;;20.13;89.14
10464;BME280;5279;42.048;24.638;2022-07-22T02:10:32;97443.38;;;19.92;89.94
10464;BME280;5279;42.048;24.638;2022-07-22T02:13:03;97468.63;;;20.11;91.16
10464;BME280;5279;42.048;24.638;2022-07-22T02:15:30;97465.34;;;20.09;92.73
10464;BME280;5279;42.048;24.638;2022-07-22T02:17:57;97457.03;;;20.04;92.18
10464;BME280;5279;42.048;24.638;2022-07-22T02:20:24;97467.81;;;20.10;92.17
10464;BME280;5279;42.048;24.638;2022-07-22T02:22:52;97457.88;;;20.04;89.80
10464;BME280;5279;42.048;24.638;2022-07-22T02:25:19;97452.06;;;20.01;92.14
10464;BME280;5279;42.048;24.638;2022-07-22T02:27:46;97446.91;;;20.06;88.78
10464;BME280;5279;42.048;24.638;2022-07-22T02:30:15;97460.75;;;20.16;86.35
10464;BME280;5279;42.048;24.638;2022-07-22T02:32:42;97457.88;;;20.24;87.57
10464;BME280;5279;42.048;24.638;2022-07-22T02:35:09;97428.06;;;20.12;86.54
10464;BME280;5279;42.048;24.638;2022-07-22T02:37:37;97444.41;;;20.37;86.76
10464;BME280;5279;42.048;24.638;2022-07-22T02:40:05;97450.84;;;20.30;85.06
10464;BME280;5279;42.048;24.638;2022-07-22T02:42:33;97435.50;;;20.24;84.07
10464;BME280;5279;42.048;24.638;2022-07-22T02:45:01;97437.16;;;20.31;85.15
10464;BME280;5279;42.048;24.638;2022-07-22T02:47:30;97450.00;;;20.36;84.15
10464;BME280;5279;42.048;24.638;2022-07-22T02:50:00;97432.00;;;20.30;84.65
10464;BME280;5279;42.048;24.638;2022-07-22T02:52:28;97427.25;;;20.12;85.61
10464;BME280;5279;42.048;24.638;2022-07-22T02:54:55;97451.66;;;20.10;87.52
10464;BME280;5279;42.048;24.638;2022-07-22T02:57:26;97440.91;;;20.17;87.10
10464;BME280;5279;42.048;24.638;2022-07-22T02:59:53;97444.03;;;20.27;85.25
10464;BME280;5279;42.048;24.638;2022-07-22T03:02:20;97436.34;;;20.17;86.12
10464;BME280;5279;42.048;24.638;2022-07-22T03:04:49;97438.81;;;20.12;85.71
10464;BME280;5279;42.048;24.638;2022-07-22T03:07:16;97437.97;;;20.25;86.30
10464;BME280;5279;42.048;24.638;2022-07-22T03:09:45;97438.41;;;20.22;84.51
10464;BME280;5279;42.048;24.638;2022-07-22T03:12:12;97445.44;;;20.23;85.24
10464;BME280;5279;42.048;24.638;2022-07-22T03:14:40;97444.19;;;20.19;87.53
10464;BME280;5279;42.048;24.638;2022-07-22T03:17:07;97448.75;;;20.25;87.16
10464;BME280;5279;42.048;24.638;2022-07-22T03:19:34;97449.59;;;20.39;86.41
10464;BME280;5279;42.048;24.638;2022-07-22T03:22:03;97445.03;;;20.39;87.84
10464;BME280;5279;42.048;24.638;2022-07-22T03:24:36;97447.72;;;20.39;86.97
10464;BME280;5279;42.048;24.638;2022-07-22T03:27:03;97453.91;;;20.46;86.08
10464;BME280;5279;42.048;24.638;2022-07-22T03:29:31;97447.72;;;20.39;85.58
10464;BME280;5279;42.048;24.638;2022-07-22T03:31:58;97444.63;;;20.42;84.93
10464;BME280;5279;42.048;24.638;2022-07-22T03:34:25;97433.03;;;20.35;85.21
10464;BME280;5279;42.048;24.638;2022-07-22T03:36:52;97461.97;;;20.46;84.62
10464;BME280;5279;42.048;24.638;2022-07-22T03:39:21;97457.03;;;20.43;86.34
10464;BME280;5279;42.048;24.638;2022-07-22T03:41:48;97464.06;;;20.44;85.45
10464;BME280;5279;42.048;24.638;2022-07-22T03:44:15;97458.25;;;20.47;85.22
10464;BME280;5279;42.048;24.638;2022-07-22T03:46:42;97460.53;;;20.57;84.59
10464;BME280;5279;42.048;24.638;2022-07-22T03:49:09;97455.75;;;20.59;83.52
10464;BME280;5279;42.048;24.638;2022-07-22T03:51:36;97451.56;;;20.76;83.27
10464;BME280;5279;42.048;24.638;2022-07-22T03:54:04;97469.09;;;20.92;83.13
10464;BME280;5279;42.048;24.638;2022-07-22T03:56:32;97460.81;;;21.00;81.05
10464;BME280;5279;42.048;24.638;2022-07-22T03:59:00;97474.44;;;21.18;83.95
10464;BME280;5279;42.048;24.638;2022-07-22T04:01:27;97465.94;;;21.08;84.71
10464;BME280;5279;42.048;24.638;2022-07-22T04:03:54;97472.34;;;21.07;87.00
10464;BME280;5279;42.048;24.638;2022-07-22T04:06:21;97463.25;;;21.08;92.44
10464;BME280;5279;42.048;24.638;2022-07-22T04:08:48;97473.84;;;21.09;92.93
10464;BME280;5279;42.048;24.638;2022-07-22T04:11:16;97470.34;;;21.09;92.72
10464;BME280;5279;42.048;24.638;2022-07-22T04:13:46;97476.69;;;21.21;86.84
10464;BME280;5279;42.048;24.638;2022-07-22T04:16:14;97479.50;;;21.39;85.79
10464;BME280;5279;42.048;24.638;2022-07-22T04:18:41;97476.97;;;21.44;84.05
10464;BME280;5279;42.048;24.638;2022-07-22T04:21:08;97481.69;;;21.55;84.63
10464;BME280;5279;42.048;24.638;2022-07-22T04:23:36;97486.47;;;21.53;79.31
10464;BME280;5279;42.048;24.638;2022-07-22T04:26:05;97480.59;;;21.63;82.90
10464;BME280;5279;42.048;24.638;2022-07-22T04:28:33;97481.84;;;21.67;82.55
10464;BME280;5279;42.048;24.638;2022-07-22T04:31:02;97470.09;;;21.79;80.50
10464;BME280;5279;42.048;24.638;2022-07-22T04:33:29;97480.47;;;21.83;78.31
10464;BME280;5279;42.048;24.638;2022-07-22T04:35:57;97466.38;;;21.80;81.07
10464;BME280;5279;42.048;24.638;2022-07-22T04:38:24;97472.84;;;22.04;77.84
10464;BME280;5279;42.048;24.638;2022-07-22T04:40:51;97478.09;;;22.24;79.48
10464;BME280;5279;42.048;24.638;2022-07-22T04:43:19;97478.50;;;22.27;78.14
10464;BME280;5279;42.048;24.638;2022-07-22T04:45:46;97495.19;;;22.43;77.08
10464;BME280;5279;42.048;24.638;2022-07-22T04:48:14;97485.69;;;22.58;73.49
10464;BME280;5279;42.048;24.638;2022-07-22T04:50:42;97481.38;;;22.75;72.08
10464;BME280;5279;42.048;24.638;2022-07-22T04:53:09;97485.44;;;22.84;73.94
10464;BME280;5279;42.048;24.638;2022-07-22T04:55:36;97492.09;;;23.00;73.37
10464;BME280;5279;42.048;24.638;2022-07-22T04:58:03;97489.22;;;23.13;72.17
10464;BME280;5279;42.048;24.638;2022-07-22T05:00:31;97480.00;;;23.21;69.77
10464;BME280;5279;42.048;24.638;2022-07-22T05:02:58;97496.66;;;23.36;72.60
10464;BME280;5279;42.048;24.638;2022-07-22T05:05:26;97491.78;;;23.45;71.72
10464;BME280;5279;42.048;24.638;2022-07-22T05:07:53;97496.28;;;23.51;68.10
10464;BME280;5279;42.048;24.638;2022-07-22T05:10:21;97496.94;;;23.64;67.51
10464;BME280;5279;42.048;24.638;2022-07-22T05:12:48;97486.56;;;23.61;68.80
10464;BME280;5279;42.048;24.638;2022-07-22T05:15:15;97489.28;;;23.61;65.17
10464;BME280;5279;42.048;24.638;2022-07-22T05:17:42;97494.63;;;23.79;63.96
10464;BME280;5279;42.048;24.638;2022-07-22T05:20:10;97496.78;;;23.89;64.37
10464;BME280;5279;42.048;24.638;2022-07-22T05:22:38;97497.38;;;24.03;62.11
10464;BME280;5279;42.048;24.638;2022-07-22T05:25:06;97488.94;;;24.11;61.96
10464;BME280;5279;42.048;24.638;2022-07-22T05:27:33;97490.97;;;24.27;61.46
10464;BME280;5279;42.048;24.638;2022-07-22T05:29:59;97490.78;;;24.40;60.29
10464;BME280;5279;42.048;24.638;2022-07-22T05:32:26;97487.22;;;24.51;61.70
10464;BME280;5279;42.048;24.638;2022-07-22T05:34:53;97491.13;;;24.67;57.67
10464;BME280;5279;42.048;24.638;2022-07-22T05:37:20;97497.47;;;24.72;54.36
10464;BME280;5279;42.048;24.638;2022-07-22T05:39:48;97492.91;;;24.61;57.85
10464;BME280;5279;42.048;24.638;2022-07-22T05:42:15;97490.53;;;24.76;58.85
10464;BME280;5279;42.048;24.638;2022-07-22T05:44:42;97499.03;;;24.91;60.49
10464;BME280;5279;42.048;24.638;2022-07-22T05:47:09;97487.94;;;24.93;60.98
10464;BME280;5279;42.048;24.638;2022-07-22T05:49:36;97479.19;;;25.02;58.35
10464;BME280;5279;42.048;24.638;2022-07-22T05:52:04;97483.31;;;25.17;52.66
10464;BME280;5279;42.048;24.638;2022-07-22T05:54:31;97483.63;;;25.32;54.51
10464;BME280;5279;42.048;24.638;2022-07-22T05:57:00;97484.53;;;25.49;54.78
10464;BME280;5279;42.048;24.638;2022-07-22T05:59:26;97482.78;;;25.71;53.15
10464;BME280;5279;42.048;24.638;2022-07-22T06:01:53;97478.69;;;25.85;51.24
10464;BME280;5279;42.048;24.638;2022-07-22T06:04:21;97472.94;;;25.98;51.32
10464;BME280;5279;42.048;24.638;2022-07-22T06:06:48;97467.59;;;26.03;54.61
10464;BME280;5279;42.048;24.638;2022-07-22T06:09:15;97472.59;;;26.12;52.58
10464;BME280;5279;42.048;24.638;2022-07-22T06:11:41;97463.78;;;26.16;52.95
10464;BME280;5279;42.048;24.638;2022-07-22T06:14:10;97476.44;;;26.27;52.66
10464;BME280;5279;42.048;24.638;2022-07-22T06:16:37;97469.34;;;26.43;53.71
10464;BME280;5279;42.048;24.638;2022-07-22T06:19:04;97480.88;;;26.50;52.56
10464;BME280;5279;42.048;24.638;2022-07-22T06:21:31;97477.19;;;26.56;52.47
10464;BME280;5279;42.048;24.638;2022-07-22T06:23:57;97472.97;;;26.65;54.31
10464;BME280;5279;42.048;24.638;2022-07-22T06:26:24;97475.19;;;26.68;54.68
10464;BME280;5279;42.048;24.638;2022-07-22T06:28:51;97478.19;;;26.88;57.06
10464;BME280;5279;42.048;24.638;2022-07-22T06:31:19;97471.06;;;27.04;53.63
10464;BME280;5279;42.048;24.638;2022-07-22T06:33:46;97470.53;;;27.24;54.35
10464;BME280;5279;42.048;24.638;2022-07-22T06:36:13;97475.50;;;27.32;56.66
10464;BME280;5279;42.048;24.638;2022-07-22T06:38:40;97468.63;;;27.46;54.86
10464;BME280;5279;42.048;24.638;2022-07-22T06:41:07;97477.47;;;27.58;53.26
10464;BME280;5279;42.048;24.638;2022-07-22T06:43:34;97478.09;;;27.65;50.38
10464;BME280;5279;42.048;24.638;2022-07-22T06:46:01;97461.34;;;27.78;50.92
10464;BME280;5279;42.048;24.638;2022-07-22T06:48:29;97477.47;;;27.85;51.23
10464;BME280;5279;42.048;24.638;2022-07-22T06:50:56;97466.88;;;27.88;51.94
10464;BME280;5279;42.048;24.638;2022-07-22T06:53:23;97463.63;;;27.91;52.70
10464;BME280;5279;42.048;24.638;2022-07-22T06:55:49;97463.75;;;28.01;52.71
10464;BME280;5279;42.048;24.638;2022-07-22T06:58:16;97468.22;;;28.12;54.14
10464;BME280;5279;42.048;24.638;2022-07-22T07:00:43;97462.88;;;28.23;53.57
10464;BME280;5279;42.048;24.638;2022-07-22T07:03:10;97474.28;;;28.51;52.47
10464;BME280;5279;42.048;24.638;2022-07-22T07:05:38;97468.84;;;28.56;52.89
10464;BME280;5279;42.048;24.638;2022-07-22T07:08:05;97472.47;;;28.67;50.95
10464;BME280;5279;42.048;24.638;2022-07-22T07:10:32;97472.56;;;28.82;51.08
10464;BME280;5279;42.048;24.638;2022-07-22T07:12:59;97481.38;;;28.94;50.29
10464;BME280;5279;42.048;24.638;2022-07-22T07:15:26;97483.03;;;28.95;50.59
10464;BME280;5279;42.048;24.638;2022-07-22T07:17:55;97478.69;;;28.99;47.83
10464;BME280;5279;42.048;24.638;2022-07-22T07:20:23;97482.19;;;28.95;49.56
10464;BME280;5279;42.048;24.638;2022-07-22T07:22:52;97482.03;;;29.11;48.32
10464;BME280;5279;42.048;24.638;2022-07-22T07:25:19;97472.78;;;29.22;48.23
10464;BME280;5279;42.048;24.638;2022-07-22T07:27:46;97483.25;;;29.36;47.05
10464;BME280;5279;42.048;24.638;2022-07-22T07:30:13;97477.56;;;29.52;46.31
10464;BME280;5279;42.048;24.638;2022-07-22T07:32:40;97485.00;;;29.72;47.02
10464;BME280;5279;42.048;24.638;2022-07-22T07:35:07;97482.84;;;29.79;48.33
10464;BME280;5279;42.048;24.638;2022-07-22T07:37:34;97478.53;;;29.93;47.36
10464;BME280;5279;42.048;24.638;2022-07-22T07:40:04;97479.88;;;30.01;45.91
10464;BME280;5279;42.048;24.638;2022-07-22T07:42:31;97473.06;;;30.13;46.29
10464;BME280;5279;42.048;24.638;2022-07-22T07:44:58;97483.19;;;30.28;46.68
10464;BME280;5279;42.048;24.638;2022-07-22T07:47:25;97474.72;;;30.34;46.28
10464;BME280;5279;42.048;24.638;2022-07-22T07:49:52;97482.97;;;30.40;45.21
10464;BME280;5279;42.048;24.638;2022-07-22T07:52:19;97489.50;;;30.44;44.27
10464;BME280;5279;42.048;24.638;2022-07-22T07:54:46;97497.41;;;30.70;46.55
10464;BME280;5279;42.048;24.638;2022-07-22T07:57:15;97487.28;;;30.96;46.46
10464;BME280;5279;42.048;24.638;2022-07-22T07:59:42;97489.44;;;31.04;43.53
10464;BME280;5279;42.048;24.638;2022-07-22T08:02:10;97493.78;;;31.20;45.37
10464;BME280;5279;42.048;24.638;2022-07-22T08:04:37;97490.97;;;31.35;43.73
10464;BME280;5279;42.048;24.638;2022-07-22T08:07:04;97481.59;;;31.47;43.80
10464;BME280;5279;42.048;24.638;2022-07-22T08:09:31;97487.13;;;31.41;42.68
10464;BME280;5279;42.048;24.638;2022-07-22T08:12:03;97480.47;;;31.63;43.90
10464;BME280;5279;42.048;24.638;2022-07-22T08:14:32;97476.25;;;31.80;41.84
10464;BME280;5279;42.048;24.638;2022-07-22T08:17:00;97456.75;;;31.87;42.30
10464;BME280;5279;42.048;24.638;2022-07-22T08:19:27;97469.44;;;32.17;41.77
10464;BME280;5279;42.048;24.638;2022-07-22T08:21:54;97482.38;;;32.11;42.65
10464;BME280;5279;42.048;24.638;2022-07-22T08:24:21;97476.34;;;32.14;40.19
10464;BME280;5279;42.048;24.638;2022-07-22T08:26:47;97486.78;;;32.07;40.23
10464;BME280;5279;42.048;24.638;2022-07-22T08:29:14;97480.41;;;32.17;36.83
10464;BME280;5279;42.048;24.638;2022-07-22T08:31:43;97476.78;;;32.26;36.97
10464;BME280;5279;42.048;24.638;2022-07-22T08:34:09;97485.97;;;32.45;37.00
10464;BME280;5279;42.048;24.638;2022-07-22T08:36:36;97470.03;;;32.47;34.70
10464;BME280;5279;42.048;24.638;2022-07-22T08:39:03;97470.97;;;32.67;35.81
10464;BME280;5279;42.048;24.638;2022-07-22T08:41:34;97481.00;;;32.81;36.98
10464;BME280;5279;42.048;24.638;2022-07-22T08:44:02;97469.84;;;32.96;34.27
10464;BME280;5279;42.048;24.638;2022-07-22T08:46:29;97473.19;;;33.17;35.69
10464;BME280;5279;42.048;24.638;2022-07-22T08:48:58;97480.59;;;33.22;34.12
10464;BME280;5279;42.048;24.638;2022-07-22T08:51:26;97479.75;;;33.21;31.30
10464;BME280;5279;42.048;24.638;2022-07-22T08:53:53;97489.00;;;33.30;32.09
10464;BME280;5279;42.048;24.638;2022-07-22T08:56:20;97478.59;;;33.27;31.92
10464;BME280;5279;42.048;24.638;2022-07-22T08:58:47;97486.41;;;33.39;33.10
10464;BME280;5279;42.048;24.638;2022-07-22T09:01:15;97487.22;;;33.39;32.43
10464;BME280;5279;42.048;24.638;2022-07-22T09:03:48;97485.06;;;33.36;32.65
10464;BME280;5279;42.048;24.638;2022-07-22T09:06:18;97495.53;;;33.34;34.30
10464;BME280;5279;42.048;24.638;2022-07-22T09:08:52;97494.72;;;33.34;32.66
10464;BME280;5279;42.048;24.638;2022-07-22T09:11:21;97488.72;;;33.03;30.80
10464;BME280;5279;42.048;24.638;2022-07-22T09:13:49;97482.81;;;32.91;31.80
10464;BME280;5279;42.048;24.638;2022-07-22T09:16:16;97482.28;;;32.89;31.38
10464;BME280;5279;42.048;24.638;2022-07-22T09:18:47;97489.78;;;33.07;31.84
10464;BME280;5279;42.048;24.638;2022-07-22T09:21:16;97487.88;;;33.31;32.09
10464;BME280;5279;42.048;24.638;2022-07-22T09:23:43;97488.50;;;33.71;33.20
10464;BME280;5279;42.048;24.638;2022-07-22T09:26:29;97485.59;;;33.81;32.31
10464;BME280;5279;42.048;24.638;2022-07-22T09:28:57;97450.97;;;33.61;32.36
10464;BME280;5279;42.048;24.638;2022-07-22T09:31:25;97490.72;;;34.06;32.14
10464;BME280;5279;42.048;24.638;2022-07-22T09:33:53;97478.22;;;34.32;33.20
10464;BME280;5279;42.048;24.638;2022-07-22T09:36:22;97477.03;;;34.38;30.42
10464;BME280;5279;42.048;24.638;2022-07-22T09:38:49;97484.41;;;34.62;31.15
10464;BME280;5279;42.048;24.638;2022-07-22T09:41:17;97481.63;;;34.62;30.64
10464;BME280;5279;42.048;24.638;2022-07-22T09:43:44;97479.81;;;34.71;33.28
10464;BME280;5279;42.048;24.638;2022-07-22T09:46:11;97475.13;;;34.71;30.00
10464;BME280;5279;42.048;24.638;2022-07-22T09:48:39;97473.66;;;34.92;29.94
10464;BME280;5279;42.048;24.638;2022-07-22T09:51:07;97479.09;;;35.11;29.23
10464;BME280;5279;42.048;24.638;2022-07-22T09:53:35;97469.31;;;35.32;30.61
10464;BME280;5279;42.048;24.638;2022-07-22T09:56:04;97476.75;;;35.18;29.30
10464;BME280;5279;42.048;24.638;2022-07-22T09:58:32;97477.66;;;35.27;30.20
10464;BME280;5279;42.048;24.638;2022-07-22T10:01:03;97473.16;;;35.45;27.76
10464;BME280;5279;42.048;24.638;2022-07-22T10:03:32;97466.63;;;35.54;28.99
10464;BME280;5279;42.048;24.638;2022-07-22T10:06:00;97465.28;;;35.52;27.90
10464;BME280;5279;42.048;24.638;2022-07-22T10:08:30;97470.81;;;35.52;29.16
10464;BME280;5279;42.048;24.638;2022-07-22T10:11:02;97453.06;;;35.58;29.81
10464;BME280;5279;42.048;24.638;2022-07-22T10:13:29;97459.69;;;35.71;29.94
10464;BME280;5279;42.048;24.638;2022-07-22T10:15:56;97450.91;;;35.55;27.16
10464;BME280;5279;42.048;24.638;2022-07-22T10:18:23;97467.06;;;35.61;26.80
10464;BME280;5279;42.048;24.638;2022-07-22T10:21:01;97455.19;;;35.75;28.04
10464;BME280;5279;42.048;24.638;2022-07-22T10:23:28;97450.84;;;35.96;25.97
10464;BME280;5279;42.048;24.638;2022-07-22T10:25:56;97446.72;;;36.07;26.53
10464;BME280;5279;42.048;24.638;2022-07-22T10:28:27;97445.25;;;36.23;30.28
10464;BME280;5279;42.048;24.638;2022-07-22T10:31:16;97447.72;;;36.33;28.43
10464;BME280;5279;42.048;24.638;2022-07-22T10:33:45;97443.34;;;36.32;28.16
10464;BME280;5279;42.048;24.638;2022-07-22T10:36:13;97442.84;;;36.30;28.02
10464;BME280;5279;42.048;24.638;2022-07-22T10:39:01;97447.19;;;36.45;26.54
10464;BME280;5279;42.048;24.638;2022-07-22T10:41:34;97434.81;;;36.64;28.78
10464;BME280;5279;42.048;24.638;2022-07-22T10:44:03;97437.97;;;36.80;27.74
10464;BME280;5279;42.048;24.638;2022-07-22T10:46:51;97435.88;;;36.86;27.34
10464;BME280;5279;42.048;24.638;2022-07-22T10:49:20;97438.38;;;36.96;29.28
10464;BME280;5279;42.048;24.638;2022-07-22T10:52:10;97432.91;;;37.04;27.37
10464;BME280;5279;42.048;24.638;2022-07-22T10:57:42;97434.72;;;37.09;25.92
10464;BME280;5279;42.048;24.638;2022-07-22T11:00:11;97436.72;;;37.17;25.91
10464;BME280;5279;42.048;24.638;2022-07-22T11:02:38;97431.31;;;37.12;26.04
10464;BME280;5279;42.048;24.638;2022-07-22T11:05:07;97434.59;;;37.14;28.74
10464;BME280;5279;42.048;24.638;2022-07-22T11:07:40;97438.66;;;37.16;27.35
10464;BME280;5279;42.048;24.638;2022-07-22T11:10:09;97438.31;;;37.18;26.52
10464;BME280;5279;42.048;24.638;2022-07-22T11:12:36;97434.13;;;37.29;25.88
10464;BME280;5279;42.048;24.638;2022-07-22T11:15:04;97441.38;;;37.47;26.21
10464;BME280;5279;42.048;24.638;2022-07-22T11:17:34;97437.47;;;37.48;25.68
10464;BME280;5279;42.048;24.638;2022-07-22T11:20:03;97437.50;;;37.65;27.07
10464;BME280;5279;42.048;24.638;2022-07-22T11:22:31;97435.38;;;37.62;27.10
10464;BME280;5279;42.048;24.638;2022-07-22T11:25:00;97433.78;;;37.79;25.21
10464;BME280;5279;42.048;24.638;2022-07-22T11:27:27;97426.94;;;37.85;24.50
10464;BME280;5279;42.048;24.638;2022-07-22T11:29:55;97427.81;;;37.94;25.75
10464;BME280;5279;42.048;24.638;2022-07-22T11:32:25;97417.88;;;37.93;26.26
10464;BME280;5279;42.048;24.638;2022-07-22T11:34:54;97417.19;;;38.04;26.20
10464;BME280;5279;42.048;24.638;2022-07-22T11:37:22;97424.34;;;38.14;26.49
10464;BME280;5279;42.048;24.638;2022-07-22T11:39:50;97427.59;;;38.16;25.87
10464;BME280;5279;42.048;24.638;2022-07-22T11:42:17;97421.91;;;38.04;25.06
10464;BME280;5279;42.048;24.638;2022-07-22T11:44:44;97425.78;;;37.51;27.00
10464;BME280;5279;42.048;24.638;2022-07-22T11:47:11;97419.63;;;37.71;26.10
10464;BME280;5279;42.048;24.638;2022-07-22T11:49:38;97423.38;;;37.75;26.83
10464;BME280;5279;42.048;24.638;2022-07-22T11:52:09;97420.91;;;37.83;26.44
10464;BME280;5279;42.048;24.638;2022-07-22T11:54:38;97411.19;;;38.02;27.18
10464;BME280;5279;42.048;24.638;2022-07-22T11:57:06;97417.16;;;38.21;27.40
10464;BME280;5279;42.048;24.638;2022-07-22T11:59:33;97414.75;;;38.20;24.91
10464;BME280;5279;42.048;24.638;2022-07-22T12:02:02;97410.97;;;38.24;25.75
10464;BME280;5279;42.048;24.638;2022-07-22T12:04:30;97414.25;;;38.26;27.04
10464;BME280;5279;42.048;24.638;2022-07-22T12:06:58;97416.84;;;38.32;26.83
10464;BME280;5279;42.048;24.638;2022-07-22T12:09:31;97404.63;;;38.33;24.51
10464;BME280;5279;42.048;24.638;2022-07-22T12:11:59;97403.34;;;38.30;24.37
10464;BME280;5279;42.048;24.638;2022-07-22T12:14:28;97398.13;;;38.20;25.49
10464;BME280;5279;42.048;24.638;2022-07-22T12:16:57;97401.88;;;38.24;24.21
10464;BME280;5279;42.048;24.638;2022-07-22T12:19:25;97397.31;;;38.37;25.81
10464;BME280;5279;42.048;24.638;2022-07-22T12:21:56;97384.44;;;38.32;24.58
10464;BME280;5279;42.048;24.638;2022-07-22T12:24:28;97391.78;;;38.37;24.39
10464;BME280;5279;42.048;24.638;2022-07-22T12:26:58;97384.78;;;38.13;24.49
10464;BME280;5279;42.048;24.638;2022-07-22T12:29:27;97388.56;;;38.09;25.72
10464;BME280;5279;42.048;24.638;2022-07-22T12:31:57;97392.31;;;37.96;26.53
10464;BME280;5279;42.048;24.638;2022-07-22T12:34:35;97386.75;;;38.13;27.41
10464;BME280;5279;42.048;24.638;2022-07-22T12:37:14;97390.81;;;38.15;26.19
10464;BME280;5279;42.048;24.638;2022-07-22T12:39:55;97393.25;;;38.17;25.86
10464;BME280;5279;42.048;24.638;2022-07-22T12:42:25;97381.53;;;38.37;26.30
10464;BME280;5279;42.048;24.638;2022-07-22T12:44:59;97390.00;;;38.15;25.10
10464;BME280;5279;42.048;24.638;2022-07-22T12:47:47;97378.28;;;38.01;24.61
10464;BME280;5279;42.048;24.638;2022-07-22T12:50:25;97383.81;;;38.01;26.48
10464;BME280;5279;42.048;24.638;2022-07-22T12:52:55;97388.06;;;37.90;25.60
10464;BME280;5279;42.048;24.638;2022-07-22T12:55:22;97388.69;;;37.87;25.13
10464;BME280;5279;42.048;24.638;2022-07-22T12:57:50;97377.94;;;37.76;24.64
10464;BME280;5279;42.048;24.638;2022-07-22T13:00:18;97387.22;;;37.81;25.81
10464;BME280;5279;42.048;24.638;2022-07-22T13:02:46;97385.44;;;37.85;24.93
10464;BME280;5279;42.048;24.638;2022-07-22T13:05:13;97391.13;;;37.71;24.86
10464;BME280;5279;42.048;24.638;2022-07-22T13:07:40;97374.00;;;37.43;26.07
10464;BME280;5279;42.048;24.638;2022-07-22T13:10:08;97385.44;;;37.50;25.72